»·PEaware :: CGVZB KMYF-KOXR

CGVZB :: KMYF-KOXR

FLIGHT INFORMATION

Flight Status: Arrived
Operator: Unknown
More flights by this operator :: More flights under this callsign
Pilot: Alan S. (10569)
Aircraft: Unknown
(DA62)
More flights by this aircraft type
Origin: KMYF Montgomery
United States
Destination: KOXR Oxnard
United States
More flights between these airports :: More routes between these airports
Route: +OCN V23 SLI SLI272 SMO125 SMO VNY
File this flight plan on PilotEdge
Remarks: TEC SANP31
Altitude:
(Current/Filed)
6,000ft
Speed:
(Current/Filed)
160kts
Departed: 14-Apr-19 09:37 PM
Arrived: 14-Apr-19 10:34 PM
Distance/Time
Traveled:
133nm/0:57
Distance/Time
To Go:
Arrived

Flight Plot

Page will automatically refresh every two minutes.


Map Options




Map Legend


Flown Route
Filed Route
Departure Airport
Arrival Airport
Navaid (VOR, NDB)
Fix

Horizontal Profiles

Position Reports

Time Latitude Longitude Heading Altitude Ground
Speed
14-Apr-19 21:11 32.814011 -117.142955 335 416ft 0kts
14-Apr-19 21:12 32.814011 -117.142955 335 416ft 0kts
14-Apr-19 21:13 32.814011 -117.142955 335 416ft 0kts
14-Apr-19 21:15 32.814011 -117.142955 335 416ft 0kts
14-Apr-19 21:15 32.814011 -117.142955 335 416ft 0kts
14-Apr-19 21:16 32.814011 -117.142955 335 416ft 0kts
14-Apr-19 21:17 32.814011 -117.142955 335 416ft 0kts
14-Apr-19 21:18 32.814011 -117.142955 335 416ft 0kts
14-Apr-19 21:19 32.814011 -117.142955 335 416ft 0kts
14-Apr-19 21:20 32.814011 -117.142955 335 416ft 0kts
14-Apr-19 21:21 32.814011 -117.142955 335 416ft 0kts
14-Apr-19 21:22 32.814011 -117.142955 335 416ft 0kts
14-Apr-19 21:23 32.814012 -117.142955 334 416ft 0kts
14-Apr-19 21:24 32.814011 -117.142955 335 416ft 0kts
14-Apr-19 21:25 32.814296 -117.143738 347 416ft 4kts
14-Apr-19 21:26 32.814403 -117.143772 344 416ft 0kts
14-Apr-19 21:27 32.814403 -117.143772 344 416ft 0kts
14-Apr-19 21:28 32.814403 -117.143772 344 416ft 0kts
14-Apr-19 21:29 32.814403 -117.143772 344 416ft 0kts
14-Apr-19 21:30 32.814890 -117.143202 66 416ft 9kts
14-Apr-19 21:31 32.814122 -117.140120 115 416ft 18kts
14-Apr-19 21:32 32.811486 -117.133624 120 416ft 21kts
14-Apr-19 21:33 32.812002 -117.131471 27 416ft 0kts
14-Apr-19 21:34 32.812002 -117.131471 27 416ft 0kts
14-Apr-19 21:35 32.812040 -117.131448 25 416ft 3kts
14-Apr-19 21:36 32.815201 -117.137166 296 419ft 83kts
14-Apr-19 21:37 32.823140 -117.167324 277 1087ft 116kts
14-Apr-19 21:38 32.828040 -117.205636 279 2055ft 117kts
14-Apr-19 21:39 32.833257 -117.236624 280 2821ft 118kts
14-Apr-19 21:40 32.840232 -117.274978 280 3774ft 119kts
14-Apr-19 21:41 32.861952 -117.301036 339 4679ft 128kts
14-Apr-19 21:42 32.896800 -117.312217 340 5574ft 132kts
14-Apr-19 21:43 32.934434 -117.323872 341 6005ft 154kts
14-Apr-19 21:44 32.978012 -117.337231 341 6001ft 166kts
14-Apr-19 21:45 33.023501 -117.351170 341 5999ft 169kts
14-Apr-19 21:46 33.068844 -117.365094 341 5999ft 169kts
14-Apr-19 21:47 33.110576 -117.377920 341 5998ft 169kts
14-Apr-19 21:48 33.156169 -117.391949 341 5998ft 169kts
14-Apr-19 21:49 33.201969 -117.406056 341 5998ft 169kts
14-Apr-19 21:50 33.245074 -117.425536 315 6001ft 164kts
14-Apr-19 21:51 33.278588 -117.462584 312 5998ft 164kts
14-Apr-19 21:52 33.311426 -117.500566 312 5998ft 164kts
14-Apr-19 21:53 33.344299 -117.538866 312 5998ft 164kts
14-Apr-19 21:54 33.377020 -117.577061 312 5998ft 164kts
14-Apr-19 21:55 33.409721 -117.615280 312 5998ft 164kts
14-Apr-19 21:56 33.442571 -117.653717 311 5999ft 164kts
14-Apr-19 21:57 33.475317 -117.692086 312 5998ft 165kts
14-Apr-19 21:58 33.508136 -117.730576 312 5996ft 165kts
14-Apr-19 21:59 33.541042 -117.769226 312 5994ft 165kts
14-Apr-19 22:00 33.573880 -117.807841 312 5992ft 165kts
14-Apr-19 22:01 33.606649 -117.846416 312 5991ft 165kts
14-Apr-19 22:02 33.639648 -117.885311 312 5993ft 165kts
14-Apr-19 22:03 33.667354 -117.928807 300 5997ft 163kts
14-Apr-19 22:04 33.692565 -117.974513 300 6000ft 163kts
14-Apr-19 22:05 33.717666 -118.020000 300 6004ft 163kts
14-Apr-19 22:06 33.742697 -118.065332 300 6007ft 163kts
14-Apr-19 22:07 33.767918 -118.110996 300 6008ft 163kts
14-Apr-19 22:08 33.792888 -118.156202 300 6008ft 163kts
14-Apr-19 22:09 33.818063 -118.201763 300 6008ft 163kts
14-Apr-19 22:10 33.843212 -118.247222 301 6008ft 163kts
14-Apr-19 22:11 33.868292 -118.292545 301 6008ft 163kts
14-Apr-19 22:12 33.896745 -118.335308 311 6015ft 164kts
14-Apr-19 22:13 33.929910 -118.373473 315 6018ft 164kts
14-Apr-19 22:14 33.964318 -118.409801 316 6017ft 165kts
14-Apr-19 22:15 34.000188 -118.446627 317 5552ft 171kts
14-Apr-19 22:16 34.036491 -118.483565 317 5051ft 171kts
14-Apr-19 22:17 34.072970 -118.520564 317 4545ft 170kts
14-Apr-19 22:18 34.105366 -118.561784 311 4052ft 167kts
14-Apr-19 22:19 34.135556 -118.600854 311 4027ft 156kts
14-Apr-19 22:20 34.165708 -118.639857 311 4026ft 159kts
14-Apr-19 22:21 34.191332 -118.681694 266 4037ft 156kts
14-Apr-19 22:22 34.185971 -118.734119 261 4027ft 157kts
14-Apr-19 22:23 34.190831 -118.786727 274 4027ft 157kts
14-Apr-19 22:24 34.194957 -118.839335 274 4027ft 157kts
14-Apr-19 22:25 34.199197 -118.892191 270 4007ft 155kts
14-Apr-19 22:26 34.198836 -118.942853 269 3784ft 142kts
14-Apr-19 22:27 34.199053 -118.991110 270 3422ft 147kts
14-Apr-19 22:28 34.199500 -119.038879 270 2677ft 138kts
14-Apr-19 22:29 34.199888 -119.084964 270 1933ft 136kts
14-Apr-19 22:30 34.200223 -119.127166 270 1241ft 119kts
14-Apr-19 22:31 34.200385 -119.161176 271 699ft 93kts
14-Apr-19 22:32 34.200653 -119.190451 271 223ft 83kts
14-Apr-19 22:33 34.200855 -119.212572 272 41ft 35kts
14-Apr-19 22:34 34.200083 -119.216900 142 41ft 0kts
14-Apr-19 22:35 34.199450 -119.216130 31 41ft 1kts
14-Apr-19 22:36 34.199471 -119.216131 356 41ft 0kts

Navigation Log

Ident Type
Flight plan parsing failed, navigation log unavailable